createdAt,value
2022-10-07T00:04:22.414Z,44.10
2022-10-07T00:14:29.539Z,38.00
2022-10-07T00:24:36.712Z,34.20
2022-10-07T00:34:44.131Z,37.40
2022-10-07T00:44:51.116Z,36.80
2022-10-07T00:55:02.472Z,37.60
2022-10-07T01:05:14.390Z,32.90
2022-10-07T01:15:20.484Z,35.00
2022-10-07T01:25:33.714Z,40.20
2022-10-07T01:35:45.210Z,38.90
2022-10-07T01:45:56.104Z,33.60
2022-10-07T01:56:13.110Z,28.80
2022-10-07T02:06:23.888Z,28.00
2022-10-07T02:16:34.995Z,32.60
2022-10-07T02:26:44.853Z,40.20
2022-10-07T02:36:54.929Z,47.00
2022-10-07T02:46:59.661Z,27.40
2022-10-07T02:57:09.477Z,27.00
2022-10-07T03:07:15.801Z,30.60
2022-10-07T03:17:23.208Z,32.90
2022-10-07T03:27:30.535Z,31.40
2022-10-07T03:37:36.799Z,29.00
2022-10-07T03:47:44.158Z,39.40
2022-10-07T03:57:58.424Z,44.30
2022-10-07T04:08:07.233Z,35.80
2022-10-07T04:18:14.215Z,36.50
2022-10-07T04:28:23.597Z,42.00
2022-10-07T04:38:32.792Z,57.50
2022-10-07T04:48:39.983Z,48.70
2022-10-07T04:58:47.143Z,53.70
2022-10-07T05:08:54.708Z,38.00
2022-10-07T05:19:00.656Z,43.40
2022-10-07T05:29:08.069Z,59.80
2022-10-07T05:39:14.676Z,34.60
2022-10-07T05:49:21.794Z,52.80
2022-10-07T05:59:28.992Z,53.70
2022-10-07T06:09:53.597Z,33.10
2022-10-07T06:20:03.048Z,37.20
2022-10-07T06:30:13.240Z,51.20
2022-10-07T06:40:20.735Z,38.00
2022-10-07T06:50:27.967Z,37.40
2022-10-07T07:00:34.917Z,48.90
2022-10-07T07:10:44.357Z,39.10
2022-10-07T07:20:52.016Z,26.30
2022-10-07T07:30:59.231Z,22.30
2022-10-07T07:41:07.451Z,13.20
2022-10-07T07:51:13.567Z,20.70
2022-10-07T08:01:21.185Z,15.10
2022-10-07T08:11:29.259Z,18.30
2022-10-07T08:21:36.448Z,17.50
2022-10-07T08:31:44.370Z,10.90
2022-10-07T08:41:57.143Z,13.50
2022-10-07T08:52:07.118Z,14.00
2022-10-07T09:02:17.401Z,12.00
2022-10-07T09:12:25.891Z,7.20
2022-10-07T09:22:37.641Z,9.50
2022-10-07T09:32:45.728Z,18.90
2022-10-07T09:42:54.509Z,8.40
2022-10-07T09:53:02.651Z,15.10
2022-10-07T10:03:10.125Z,7.70
2022-10-07T10:13:29.064Z,11.80
2022-10-07T10:23:38.690Z,17.20
2022-10-07T10:33:43.628Z,10.30
2022-10-07T10:44:01.181Z,4.00
2022-10-07T10:54:10.554Z,8.10
2022-10-07T11:04:26.114Z,10.10
2022-10-07T11:14:37.987Z,6.00
2022-10-07T11:24:49.789Z,8.20
2022-10-07T11:34:58.096Z,5.10
2022-10-07T11:45:06.360Z,4.70
2022-10-07T12:05:51.138Z,8.20
2022-10-07T12:16:19.125Z,9.60
2022-10-07T12:26:51.660Z,5.90
2022-10-07T12:37:36.201Z,6.30
2022-10-07T12:47:45.281Z,7.20
2022-10-07T12:57:55.082Z,8.00
2022-10-07T13:08:35.539Z,7.80
2022-10-07T13:18:44.717Z,15.70
2022-10-07T13:28:55.149Z,7.40
2022-10-07T13:39:11.294Z,9.20
2022-10-07T13:49:23.101Z,9.60
2022-10-07T13:59:36.775Z,8.40
2022-10-07T14:09:50.447Z,6.30
2022-10-07T14:20:00.457Z,8.20
2022-10-07T14:30:32.082Z,6.70
2022-10-07T14:40:39.801Z,7.90
2022-10-07T14:50:46.968Z,8.10
2022-10-07T15:00:54.049Z,9.70
2022-10-07T15:11:02.989Z,8.40
2022-10-07T15:21:09.103Z,9.50
2022-10-07T15:31:17.856Z,15.20
2022-10-07T15:41:33.020Z,10.90
2022-10-07T15:51:40.811Z,11.30
2022-10-07T16:01:52.033Z,13.00
2022-10-07T16:11:59.388Z,12.70
2022-10-07T16:22:06.598Z,14.80
2022-10-07T16:32:14.443Z,17.20
2022-10-07T16:42:20.776Z,22.00
2022-10-07T16:52:26.843Z,22.10
2022-10-07T17:02:34.162Z,44.60
2022-10-07T17:12:40.346Z,28.70
2022-10-07T17:22:47.832Z,50.80
2022-10-07T17:32:55.025Z,34.40
2022-10-07T17:43:01.712Z,35.60
2022-10-07T17:53:09.005Z,41.20
2022-10-07T18:03:16.383Z,32.40
2022-10-07T18:13:41.477Z,35.70
2022-10-07T18:23:48.684Z,36.00
2022-10-07T18:33:55.997Z,37.40
2022-10-07T18:44:03.139Z,54.30
2022-10-07T18:54:11.663Z,45.90
2022-10-07T19:04:18.965Z,46.00
2022-10-07T19:14:31.169Z,43.80
2022-10-07T19:24:56.447Z,53.90
2022-10-07T19:35:03.711Z,46.40
2022-10-07T19:45:14.429Z,51.90
2022-10-07T19:55:22.081Z,59.90
2022-10-07T20:05:29.921Z,61.60
2022-10-07T20:15:37.342Z,62.90
2022-10-07T20:25:45.871Z,67.10
2022-10-07T20:35:52.567Z,65.70
2022-10-07T20:45:59.898Z,66.10
2022-10-07T20:56:05.937Z,59.90
2022-10-07T21:06:13.161Z,63.10
2022-10-07T21:16:19.722Z,54.10
2022-10-07T21:26:26.653Z,56.90
2022-10-07T21:36:34.260Z,58.20
2022-10-07T21:46:42.611Z,58.00
2022-10-07T21:56:50.805Z,53.50
2022-10-07T22:07:16.100Z,60.50
2022-10-07T22:17:23.526Z,56.90
2022-10-07T22:27:30.588Z,53.80
2022-10-07T22:37:38.447Z,55.00
2022-10-07T22:47:45.509Z,55.70
2022-10-07T22:57:52.956Z,52.90
2022-10-07T23:08:00.042Z,52.90
2022-10-07T23:18:06.226Z,58.20
2022-10-07T23:28:13.268Z,53.30
2022-10-07T23:38:20.427Z,55.50
2022-10-07T23:48:27.898Z,51.60
2022-10-07T23:58:36.007Z,52.10
